Meteo Giornale » Osservazioni meteo Italia » Decimomannu

ore: 02:55 - Osservazioni Meteo Decimomannu
Lat. 39° 21' N Lon. 8° 58' E Alt. 29 metri s.l.m.

sereno Europe/Rome

14 °C

Sereno

Temp. 24 Ore

12 °C

26 °C

Ovest/Nord-Ovest

7.4 Km/h

Dew point 13 °C

Umidità 93 %

Visibilità  10 Km

Il sole sorge alle ore 06:01

Il sole tramonta alle ore 20:40

Data e Ora Cielo e Fenomeni T °C DP °C Um. % Pres. hPa Vis. km Vento km/h
Oggi h: 02:55 sereno Sereno 14 13 93 1016 10 O/NO 7.4
Oggi h: 01:55 sereno Sereno 15 14 93 1016 10 N/NO 9.3
Ieri h: 23:55 sereno Sereno 16 15 93 1016 10 N/NO 9.3
Ieri h: 22:55 sereno Sereno 17 16 93 1016 10 N 9.3
Ieri h: 21:55 sereno Sereno 19 17 88 1016 10 N/NO 11.1
Ieri h: 20:55 sereno Sereno 20 18 88 1016 10 N/NO 9.3
Ieri h: 19:55 poco_nuvoloso Poco Nuvoloso 23 18 73 1015 10 N/NO 22.2
Ieri h: 18:55 poco_nuvoloso Poco Nuvoloso 25 15 53 1015 10 N/NO 25.9
Ieri h: 17:55 poco_nuvoloso Poco Nuvoloso 25 14 50 1015 10 N/NO 25.9
Ieri h: 16:55 poco_nuvoloso Poco Nuvoloso 26 12 41 1015 10 N/NO 25.9
Ieri h: 15:55 poco_nuvoloso Poco Nuvoloso 26 12 41 1016 10 NO 25.9
Ieri h: 14:55 poco_nuvoloso Poco Nuvoloso 26 13 44 1016 10 N/NO 24
Ieri h: 13:55 poco_nuvoloso Poco Nuvoloso 25 13 47 1017 10 N/NO 22.2
Ieri h: 12:55 poco_nuvoloso Poco Nuvoloso 25 14 50 1017 10 N/NO 22.2
Ieri h: 11:55 poco_nuvoloso Poco Nuvoloso 24 14 53 1017 10 NO 24
Ieri h: 10:55 poco_nuvoloso Poco Nuvoloso 23 15 60 1017 10 NO 27.8
Ieri h: 09:55 poco_nuvoloso Poco Nuvoloso 21 16 73 1017 10 N/NO 16.7
Ieri h: 08:55 poco_nuvoloso Poco Nuvoloso 17 15 88 1017 10 NO 7.4
Ieri h: 07:55 poco_nuvoloso Poco Nuvoloso 15 13 87 1017 10 N 5.5
Ieri h: 06:55 poco_nuvoloso Poco Nuvoloso 12 10 87 1018 10 NO 9.3
Ieri h: 05:55 poco_nuvoloso Poco Nuvoloso 12 10 87 1017 10 N/NO 7.4
Ieri h: 04:55 sereno Sereno 12 10 87 1017 10 N 3.7
Ieri h: 03:55 sereno Sereno 13 11 87 1017 10 N 5.5